sensor_id;sensor_type;location;lat;lon;timestamp;P1;durP1;ratioP1;P2;durP2;ratioP2
47896;SDS011;39629;51.400;5.494;2023-06-19T00:01:59;5.80;;;3.60;;
47896;SDS011;39629;51.400;5.494;2023-06-19T00:07:03;4.60;;;3.47;;
47896;SDS011;39629;51.400;5.494;2023-06-19T00:12:05;5.35;;;3.63;;
47896;SDS011;39629;51.400;5.494;2023-06-19T00:17:07;5.57;;;3.58;;
47896;SDS011;39629;51.400;5.494;2023-06-19T00:22:10;6.13;;;3.55;;
47896;SDS011;39629;51.400;5.494;2023-06-19T00:27:12;6.35;;;3.58;;
47896;SDS011;39629;51.400;5.494;2023-06-19T00:32:14;6.72;;;3.90;;
47896;SDS011;39629;51.400;5.494;2023-06-19T00:37:17;5.30;;;3.50;;
47896;SDS011;39629;51.400;5.494;2023-06-19T00:42:18;6.47;;;3.50;;
47896;SDS011;39629;51.400;5.494;2023-06-19T00:47:20;6.03;;;3.47;;
47896;SDS011;39629;51.400;5.494;2023-06-19T00:52:24;9.93;;;3.38;;
47896;SDS011;39629;51.400;5.494;2023-06-19T00:57:25;5.57;;;3.40;;
47896;SDS011;39629;51.400;5.494;2023-06-19T01:02:27;4.95;;;3.22;;
47896;SDS011;39629;51.400;5.494;2023-06-19T01:07:32;7.18;;;3.60;;
47896;SDS011;39629;51.400;5.494;2023-06-19T01:12:44;4.95;;;3.03;;
47896;SDS011;39629;51.400;5.494;2023-06-19T01:17:54;4.22;;;2.85;;
47896;SDS011;39629;51.400;5.494;2023-06-19T01:23:04;5.05;;;3.00;;
47896;SDS011;39629;51.400;5.494;2023-06-19T01:28:08;5.95;;;2.60;;
47896;SDS011;39629;51.400;5.494;2023-06-19T01:33:12;4.05;;;2.65;;
47896;SDS011;39629;51.400;5.494;2023-06-19T01:38:20;4.25;;;2.60;;
47896;SDS011;39629;51.400;5.494;2023-06-19T01:43:25;3.90;;;2.47;;
47896;SDS011;39629;51.400;5.494;2023-06-19T01:48:28;5.78;;;2.30;;
47896;SDS011;39629;51.400;5.494;2023-06-19T01:53:31;4.38;;;2.20;;
47896;SDS011;39629;51.400;5.494;2023-06-19T01:58:33;4.63;;;2.15;;
47896;SDS011;39629;51.400;5.494;2023-06-19T02:03:34;3.78;;;2.28;;
47896;SDS011;39629;51.400;5.494;2023-06-19T02:08:37;4.53;;;2.00;;
47896;SDS011;39629;51.400;5.494;2023-06-19T02:13:39;4.45;;;1.90;;
47896;SDS011;39629;51.400;5.494;2023-06-19T02:18:40;3.90;;;2.08;;
47896;SDS011;39629;51.400;5.494;2023-06-19T02:23:43;3.50;;;2.00;;
47896;SDS011;39629;51.400;5.494;2023-06-19T02:28:45;4.40;;;2.10;;
47896;SDS011;39629;51.400;5.494;2023-06-19T02:33:46;3.10;;;1.90;;
47896;SDS011;39629;51.400;5.494;2023-06-19T02:38:49;5.05;;;2.95;;
47896;SDS011;39629;51.400;5.494;2023-06-19T02:43:51;3.25;;;1.90;;
47896;SDS011;39629;51.400;5.494;2023-06-19T02:48:52;3.78;;;2.00;;
47896;SDS011;39629;51.400;5.494;2023-06-19T02:53:57;3.88;;;2.15;;
47896;SDS011;39629;51.400;5.494;2023-06-19T02:58:59;3.03;;;1.80;;
47896;SDS011;39629;51.400;5.494;2023-06-19T03:04:00;3.85;;;1.85;;
47896;SDS011;39629;51.400;5.494;2023-06-19T03:09:03;4.03;;;2.00;;
47896;SDS011;39629;51.400;5.494;2023-06-19T03:14:05;4.90;;;2.30;;
47896;SDS011;39629;51.400;5.494;2023-06-19T03:19:08;5.63;;;2.08;;
47896;SDS011;39629;51.400;5.494;2023-06-19T03:24:11;3.75;;;1.65;;
47896;SDS011;39629;51.400;5.494;2023-06-19T03:29:13;3.42;;;1.95;;
47896;SDS011;39629;51.400;5.494;2023-06-19T03:34:27;3.17;;;1.65;;
47896;SDS011;39629;51.400;5.494;2023-06-19T03:39:30;4.90;;;1.88;;
47896;SDS011;39629;51.400;5.494;2023-06-19T03:44:38;3.63;;;1.70;;
47896;SDS011;39629;51.400;5.494;2023-06-19T03:49:41;3.85;;;1.77;;
47896;SDS011;39629;51.400;5.494;2023-06-19T03:54:43;2.70;;;1.70;;
47896;SDS011;39629;51.400;5.494;2023-06-19T03:59:45;4.57;;;1.80;;
47896;SDS011;39629;51.400;5.494;2023-06-19T04:04:47;4.90;;;2.22;;
47896;SDS011;39629;51.400;5.494;2023-06-19T04:09:50;3.78;;;1.90;;
47896;SDS011;39629;51.400;5.494;2023-06-19T04:14:52;3.38;;;1.95;;
47896;SDS011;39629;51.400;5.494;2023-06-19T04:19:54;3.35;;;1.80;;
47896;SDS011;39629;51.400;5.494;2023-06-19T04:24:57;3.58;;;1.98;;
47896;SDS011;39629;51.400;5.494;2023-06-19T04:29:58;5.72;;;1.92;;
47896;SDS011;39629;51.400;5.494;2023-06-19T04:35:00;3.30;;;2.10;;
47896;SDS011;39629;51.400;5.494;2023-06-19T04:40:03;3.50;;;2.17;;
47896;SDS011;39629;51.400;5.494;2023-06-19T04:45:07;3.95;;;2.10;;
47896;SDS011;39629;51.400;5.494;2023-06-19T04:50:09;5.20;;;2.35;;
47896;SDS011;39629;51.400;5.494;2023-06-19T04:55:12;4.18;;;2.00;;
47896;SDS011;39629;51.400;5.494;2023-06-19T05:00:14;3.45;;;2.17;;
47896;SDS011;39629;51.400;5.494;2023-06-19T05:05:19;4.18;;;2.47;;
47896;SDS011;39629;51.400;5.494;2023-06-19T05:10:22;5.63;;;2.55;;
47896;SDS011;39629;51.400;5.494;2023-06-19T05:15:23;4.85;;;2.13;;
47896;SDS011;39629;51.400;5.494;2023-06-19T05:20:25;3.95;;;2.42;;
47896;SDS011;39629;51.400;5.494;2023-06-19T05:25:27;4.35;;;2.53;;
47896;SDS011;39629;51.400;5.494;2023-06-19T05:30:29;3.90;;;2.58;;
47896;SDS011;39629;51.400;5.494;2023-06-19T05:35:30;6.85;;;2.40;;
47896;SDS011;39629;51.400;5.494;2023-06-19T05:40:34;3.20;;;1.95;;
47896;SDS011;39629;51.400;5.494;2023-06-19T05:45:35;4.38;;;2.35;;
47896;SDS011;39629;51.400;5.494;2023-06-19T05:50:37;3.17;;;1.90;;
47896;SDS011;39629;51.400;5.494;2023-06-19T05:55:40;4.70;;;2.40;;
47896;SDS011;39629;51.400;5.494;2023-06-19T06:00:41;3.50;;;2.10;;
47896;SDS011;39629;51.400;5.494;2023-06-19T06:05:43;3.80;;;2.20;;
47896;SDS011;39629;51.400;5.494;2023-06-19T06:10:50;4.45;;;2.17;;
47896;SDS011;39629;51.400;5.494;2023-06-19T06:15:51;3.63;;;2.00;;
47896;SDS011;39629;51.400;5.494;2023-06-19T06:20:53;3.53;;;1.75;;
47896;SDS011;39629;51.400;5.494;2023-06-19T06:25:56;3.55;;;2.05;;
47896;SDS011;39629;51.400;5.494;2023-06-19T06:31:02;3.22;;;1.88;;
47896;SDS011;39629;51.400;5.494;2023-06-19T06:36:03;2.80;;;1.92;;
47896;SDS011;39629;51.400;5.494;2023-06-19T06:41:06;3.70;;;2.10;;
47896;SDS011;39629;51.400;5.494;2023-06-19T06:46:08;3.67;;;2.00;;
47896;SDS011;39629;51.400;5.494;2023-06-19T06:51:10;3.42;;;1.90;;
47896;SDS011;39629;51.400;5.494;2023-06-19T06:56:13;3.78;;;2.47;;
47896;SDS011;39629;51.400;5.494;2023-06-19T07:01:14;5.72;;;2.33;;
47896;SDS011;39629;51.400;5.494;2023-06-19T07:06:16;4.63;;;2.80;;
47896;SDS011;39629;51.400;5.494;2023-06-19T07:11:19;4.88;;;3.08;;
47896;SDS011;39629;51.400;5.494;2023-06-19T07:16:20;5.15;;;2.85;;
47896;SDS011;39629;51.400;5.494;2023-06-19T07:21:22;5.53;;;3.60;;
47896;SDS011;39629;51.400;5.494;2023-06-19T07:26:25;5.05;;;3.08;;
47896;SDS011;39629;51.400;5.494;2023-06-19T07:31:26;5.97;;;3.60;;
47896;SDS011;39629;51.400;5.494;2023-06-19T07:36:28;4.55;;;3.08;;
47896;SDS011;39629;51.400;5.494;2023-06-19T07:41:30;6.68;;;3.75;;
47896;SDS011;39629;51.400;5.494;2023-06-19T07:46:32;5.07;;;2.90;;
47896;SDS011;39629;51.400;5.494;2023-06-19T07:51:33;5.00;;;3.05;;
47896;SDS011;39629;51.400;5.494;2023-06-19T07:56:36;3.88;;;2.92;;
47896;SDS011;39629;51.400;5.494;2023-06-19T08:01:38;5.77;;;3.37;;
47896;SDS011;39629;51.400;5.494;2023-06-19T08:06:39;4.57;;;2.70;;
47896;SDS011;39629;51.400;5.494;2023-06-19T08:11:42;3.95;;;2.80;;
47896;SDS011;39629;51.400;5.494;2023-06-19T08:16:45;5.60;;;3.03;;
47896;SDS011;39629;51.400;5.494;2023-06-19T08:21:46;5.05;;;2.67;;
47896;SDS011;39629;51.400;5.494;2023-06-19T08:26:49;4.60;;;3.00;;
47896;SDS011;39629;51.400;5.494;2023-06-19T08:31:52;5.38;;;2.60;;
47896;SDS011;39629;51.400;5.494;2023-06-19T08:36:53;6.03;;;2.80;;
47896;SDS011;39629;51.400;5.494;2023-06-19T08:41:56;4.95;;;2.78;;
47896;SDS011;39629;51.400;5.494;2023-06-19T08:46:57;6.00;;;3.20;;
47896;SDS011;39629;51.400;5.494;2023-06-19T08:51:59;4.50;;;3.10;;
47896;SDS011;39629;51.400;5.494;2023-06-19T08:57:02;4.53;;;3.20;;
47896;SDS011;39629;51.400;5.494;2023-06-19T09:02:04;4.50;;;3.00;;
47896;SDS011;39629;51.400;5.494;2023-06-19T09:07:07;4.15;;;2.75;;
47896;SDS011;39629;51.400;5.494;2023-06-19T09:12:18;3.72;;;2.90;;
47896;SDS011;39629;51.400;5.494;2023-06-19T09:17:31;4.82;;;2.97;;
47896;SDS011;39629;51.400;5.494;2023-06-19T09:22:44;5.28;;;2.75;;
47896;SDS011;39629;51.400;5.494;2023-06-19T09:27:47;5.63;;;3.88;;
47896;SDS011;39629;51.400;5.494;2023-06-19T09:32:48;4.95;;;3.50;;
47896;SDS011;39629;51.400;5.494;2023-06-19T09:37:50;4.07;;;3.33;;
47896;SDS011;39629;51.400;5.494;2023-06-19T09:42:55;5.07;;;3.38;;
47896;SDS011;39629;51.400;5.494;2023-06-19T09:48:03;7.25;;;3.65;;
47896;SDS011;39629;51.400;5.494;2023-06-19T09:53:22;6.82;;;3.42;;
47896;SDS011;39629;51.400;5.494;2023-06-19T09:58:26;6.67;;;3.53;;
47896;SDS011;39629;51.400;5.494;2023-06-19T10:03:31;4.38;;;3.33;;
47896;SDS011;39629;51.400;5.494;2023-06-19T10:08:38;6.03;;;4.03;;
47896;SDS011;39629;51.400;5.494;2023-06-19T10:13:42;6.68;;;4.28;;
47896;SDS011;39629;51.400;5.494;2023-06-19T10:18:44;5.28;;;3.72;;
47896;SDS011;39629;51.400;5.494;2023-06-19T10:23:53;8.68;;;4.20;;
47896;SDS011;39629;51.400;5.494;2023-06-19T10:28:57;6.78;;;3.70;;
47896;SDS011;39629;51.400;5.494;2023-06-19T10:33:59;8.63;;;3.83;;
47896;SDS011;39629;51.400;5.494;2023-06-19T10:39:00;5.57;;;3.90;;
47896;SDS011;39629;51.400;5.494;2023-06-19T10:44:04;5.00;;;3.30;;
47896;SDS011;39629;51.400;5.494;2023-06-19T10:49:10;5.85;;;3.45;;
47896;SDS011;39629;51.400;5.494;2023-06-19T10:54:13;5.45;;;3.60;;
47896;SDS011;39629;51.400;5.494;2023-06-19T10:59:17;5.60;;;3.78;;
47896;SDS011;39629;51.400;5.494;2023-06-19T11:04:18;5.20;;;3.20;;
47896;SDS011;39629;51.400;5.494;2023-06-19T11:09:20;5.60;;;3.85;;
47896;SDS011;39629;51.400;5.494;2023-06-19T11:14:28;5.40;;;3.65;;
47896;SDS011;39629;51.400;5.494;2023-06-19T11:19:30;4.97;;;3.90;;
47896;SDS011;39629;51.400;5.494;2023-06-19T11:24:33;4.82;;;3.50;;
47896;SDS011;39629;51.400;5.494;2023-06-19T11:29:36;10.10;;;3.80;;
47896;SDS011;39629;51.400;5.494;2023-06-19T11:34:37;5.18;;;3.17;;
47896;SDS011;39629;51.400;5.494;2023-06-19T11:39:39;6.80;;;3.70;;
47896;SDS011;39629;51.400;5.494;2023-06-19T11:50:03;6.05;;;3.40;;
47896;SDS011;39629;51.400;5.494;2023-06-19T11:55:08;8.43;;;3.22;;
47896;SDS011;39629;51.400;5.494;2023-06-19T12:00:16;4.82;;;3.30;;
47896;SDS011;39629;51.400;5.494;2023-06-19T12:05:18;5.18;;;3.22;;
47896;SDS011;39629;51.400;5.494;2023-06-19T12:10:19;7.18;;;3.53;;
47896;SDS011;39629;51.400;5.494;2023-06-19T12:15:22;6.65;;;3.60;;
47896;SDS011;39629;51.400;5.494;2023-06-19T12:20:25;4.22;;;3.00;;
47896;SDS011;39629;51.400;5.494;2023-06-19T12:25:26;8.55;;;3.70;;
47896;SDS011;39629;51.400;5.494;2023-06-19T12:30:29;6.55;;;3.78;;
47896;SDS011;39629;51.400;5.494;2023-06-19T12:35:31;5.88;;;3.00;;
47896;SDS011;39629;51.400;5.494;2023-06-19T12:45:35;4.90;;;3.28;;
47896;SDS011;39629;51.400;5.494;2023-06-19T12:50:37;5.75;;;3.60;;
47896;SDS011;39629;51.400;5.494;2023-06-19T13:00:41;3.97;;;3.13;;
47896;SDS011;39629;51.400;5.494;2023-06-19T13:05:42;6.63;;;3.08;;
47896;SDS011;39629;51.400;5.494;2023-06-19T13:10:44;6.15;;;3.00;;
47896;SDS011;39629;51.400;5.494;2023-06-19T13:15:47;3.90;;;2.92;;
47896;SDS011;39629;51.400;5.494;2023-06-19T13:20:48;4.05;;;2.78;;
47896;SDS011;39629;51.400;5.494;2023-06-19T13:25:50;5.40;;;3.00;;
47896;SDS011;39629;51.400;5.494;2023-06-19T13:30:53;4.45;;;2.75;;
47896;SDS011;39629;51.400;5.494;2023-06-19T13:35:54;5.18;;;2.72;;
47896;SDS011;39629;51.400;5.494;2023-06-19T13:40:56;4.30;;;3.17;;
47896;SDS011;39629;51.400;5.494;2023-06-19T13:45:59;5.00;;;3.15;;
47896;SDS011;39629;51.400;5.494;2023-06-19T13:51:03;4.30;;;3.10;;
47896;SDS011;39629;51.400;5.494;2023-06-19T13:56:05;6.35;;;2.83;;
47896;SDS011;39629;51.400;5.494;2023-06-19T14:01:08;5.25;;;3.10;;
47896;SDS011;39629;51.400;5.494;2023-06-19T14:06:10;5.47;;;3.08;;
47896;SDS011;39629;51.400;5.494;2023-06-19T14:11:12;4.85;;;3.08;;
47896;SDS011;39629;51.400;5.494;2023-06-19T14:16:15;4.95;;;2.60;;
47896;SDS011;39629;51.400;5.494;2023-06-19T14:21:17;5.22;;;2.47;;
47896;SDS011;39629;51.400;5.494;2023-06-19T14:26:19;3.70;;;2.58;;
47896;SDS011;39629;51.400;5.494;2023-06-19T14:31:22;5.47;;;3.10;;
47896;SDS011;39629;51.400;5.494;2023-06-19T14:36:24;4.93;;;2.67;;
47896;SDS011;39629;51.400;5.494;2023-06-19T14:41:25;3.92;;;2.67;;
47896;SDS011;39629;51.400;5.494;2023-06-19T14:46:28;6.07;;;2.70;;
47896;SDS011;39629;51.400;5.494;2023-06-19T14:51:31;4.97;;;2.53;;
47896;SDS011;39629;51.400;5.494;2023-06-19T14:56:32;3.67;;;2.60;;
47896;SDS011;39629;51.400;5.494;2023-06-19T15:01:35;3.50;;;2.63;;
47896;SDS011;39629;51.400;5.494;2023-06-19T15:06:37;3.70;;;2.38;;
47896;SDS011;39629;51.400;5.494;2023-06-19T15:11:38;4.70;;;2.72;;
47896;SDS011;39629;51.400;5.494;2023-06-19T15:16:41;4.70;;;2.72;;
47896;SDS011;39629;51.400;5.494;2023-06-19T15:21:43;3.58;;;2.55;;
47896;SDS011;39629;51.400;5.494;2023-06-19T15:26:44;6.10;;;2.83;;
47896;SDS011;39629;51.400;5.494;2023-06-19T15:31:47;7.20;;;2.70;;
47896;SDS011;39629;51.400;5.494;2023-06-19T15:36:49;4.07;;;2.70;;
47896;SDS011;39629;51.400;5.494;2023-06-19T15:46:53;4.35;;;2.70;;
47896;SDS011;39629;51.400;5.494;2023-06-19T15:51:54;3.95;;;2.65;;
47896;SDS011;39629;51.400;5.494;2023-06-19T15:56:56;3.40;;;2.47;;
47896;SDS011;39629;51.400;5.494;2023-06-19T16:01:59;8.63;;;2.95;;
47896;SDS011;39629;51.400;5.494;2023-06-19T16:07:01;4.40;;;2.92;;
47896;SDS011;39629;51.400;5.494;2023-06-19T16:12:03;5.47;;;3.22;;
47896;SDS011;39629;51.400;5.494;2023-06-19T16:17:06;6.15;;;2.72;;
47896;SDS011;39629;51.400;5.494;2023-06-19T16:22:08;6.38;;;3.22;;
47896;SDS011;39629;51.400;5.494;2023-06-19T16:27:11;3.95;;;2.63;;
47896;SDS011;39629;51.400;5.494;2023-06-19T16:32:14;5.05;;;2.60;;
47896;SDS011;39629;51.400;5.494;2023-06-19T16:37:15;5.35;;;2.85;;
47896;SDS011;39629;51.400;5.494;2023-06-19T16:42:17;4.47;;;2.80;;
47896;SDS011;39629;51.400;5.494;2023-06-19T16:47:21;6.65;;;3.20;;
47896;SDS011;39629;51.400;5.494;2023-06-19T16:52:23;3.80;;;2.80;;
47896;SDS011;39629;51.400;5.494;2023-06-19T16:57:26;6.07;;;3.10;;
47896;SDS011;39629;51.400;5.494;2023-06-19T17:02:31;6.07;;;2.75;;
47896;SDS011;39629;51.400;5.494;2023-06-19T17:07:33;4.68;;;2.97;;
47896;SDS011;39629;51.400;5.494;2023-06-19T17:12:34;4.63;;;2.70;;
47896;SDS011;39629;51.400;5.494;2023-06-19T17:17:37;6.35;;;2.95;;
47896;SDS011;39629;51.400;5.494;2023-06-19T17:22:39;5.43;;;3.13;;
47896;SDS011;39629;51.400;5.494;2023-06-19T17:27:40;5.88;;;3.20;;
47896;SDS011;39629;51.400;5.494;2023-06-19T17:32:44;5.35;;;2.92;;
47896;SDS011;39629;51.400;5.494;2023-06-19T17:37:46;4.78;;;3.05;;
47896;SDS011;39629;51.400;5.494;2023-06-19T17:42:48;4.43;;;2.95;;
47896;SDS011;39629;51.400;5.494;2023-06-19T17:47:51;7.30;;;2.63;;
47896;SDS011;39629;51.400;5.494;2023-06-19T17:52:52;5.70;;;3.00;;
47896;SDS011;39629;51.400;5.494;2023-06-19T17:57:54;5.43;;;2.72;;
47896;SDS011;39629;51.400;5.494;2023-06-19T18:02:57;4.63;;;2.80;;
47896;SDS011;39629;51.400;5.494;2023-06-19T18:12:59;6.85;;;2.90;;
47896;SDS011;39629;51.400;5.494;2023-06-19T18:23:05;4.68;;;2.85;;
47896;SDS011;39629;51.400;5.494;2023-06-19T18:28:07;4.63;;;2.78;;
47896;SDS011;39629;51.400;5.494;2023-06-19T18:33:10;5.28;;;2.65;;
47896;SDS011;39629;51.400;5.494;2023-06-19T18:38:11;4.80;;;2.67;;
47896;SDS011;39629;51.400;5.494;2023-06-19T18:43:13;4.60;;;2.90;;
47896;SDS011;39629;51.400;5.494;2023-06-19T18:48:16;3.63;;;2.47;;
47896;SDS011;39629;51.400;5.494;2023-06-19T18:53:18;4.55;;;2.65;;
47896;SDS011;39629;51.400;5.494;2023-06-19T18:58:20;6.43;;;2.92;;
47896;SDS011;39629;51.400;5.494;2023-06-19T19:03:23;4.57;;;2.90;;
47896;SDS011;39629;51.400;5.494;2023-06-19T19:08:24;6.75;;;3.08;;
47896;SDS011;39629;51.400;5.494;2023-06-19T19:13:26;4.90;;;2.97;;
47896;SDS011;39629;51.400;5.494;2023-06-19T19:18:29;5.32;;;2.80;;
47896;SDS011;39629;51.400;5.494;2023-06-19T19:23:30;13.18;;;3.28;;
47896;SDS011;39629;51.400;5.494;2023-06-19T19:28:32;4.80;;;3.00;;
47896;SDS011;39629;51.400;5.494;2023-06-19T19:33:35;6.10;;;3.00;;
47896;SDS011;39629;51.400;5.494;2023-06-19T19:38:36;4.85;;;3.20;;
47896;SDS011;39629;51.400;5.494;2023-06-19T19:43:38;4.85;;;3.10;;
47896;SDS011;39629;51.400;5.494;2023-06-19T19:48:41;7.40;;;3.15;;
47896;SDS011;39629;51.400;5.494;2023-06-19T19:53:42;6.50;;;3.20;;
47896;SDS011;39629;51.400;5.494;2023-06-19T19:58:44;6.50;;;3.08;;
47896;SDS011;39629;51.400;5.494;2023-06-19T20:03:47;5.57;;;3.05;;
47896;SDS011;39629;51.400;5.494;2023-06-19T20:08:48;8.77;;;3.28;;
47896;SDS011;39629;51.400;5.494;2023-06-19T20:13:50;5.65;;;3.22;;
47896;SDS011;39629;51.400;5.494;2023-06-19T20:18:53;5.28;;;3.00;;
47896;SDS011;39629;51.400;5.494;2023-06-19T20:23:55;5.93;;;3.03;;
47896;SDS011;39629;51.400;5.494;2023-06-19T20:28:57;4.90;;;3.10;;
47896;SDS011;39629;51.400;5.494;2023-06-19T20:34:00;8.43;;;3.65;;
47896;SDS011;39629;51.400;5.494;2023-06-19T20:39:03;6.35;;;3.90;;
47896;SDS011;39629;51.400;5.494;2023-06-19T20:44:06;6.80;;;3.73;;
47896;SDS011;39629;51.400;5.494;2023-06-19T20:49:08;9.82;;;4.15;;
47896;SDS011;39629;51.400;5.494;2023-06-19T20:54:11;7.30;;;3.63;;
47896;SDS011;39629;51.400;5.494;2023-06-19T20:59:13;8.60;;;3.85;;
47896;SDS011;39629;51.400;5.494;2023-06-19T21:04:16;6.25;;;3.90;;
47896;SDS011;39629;51.400;5.494;2023-06-19T21:09:17;6.53;;;4.10;;
47896;SDS011;39629;51.400;5.494;2023-06-19T21:14:19;6.68;;;3.78;;
47896;SDS011;39629;51.400;5.494;2023-06-19T21:19:22;7.18;;;4.30;;
47896;SDS011;39629;51.400;5.494;2023-06-19T21:24:24;7.03;;;4.50;;
47896;SDS011;39629;51.400;5.494;2023-06-19T21:29:25;9.38;;;4.25;;
47896;SDS011;39629;51.400;5.494;2023-06-19T21:34:28;7.60;;;4.75;;
47896;SDS011;39629;51.400;5.494;2023-06-19T21:39:30;7.00;;;4.60;;
47896;SDS011;39629;51.400;5.494;2023-06-19T21:44:31;9.07;;;4.82;;
47896;SDS011;39629;51.400;5.494;2023-06-19T21:49:34;7.40;;;4.90;;
47896;SDS011;39629;51.400;5.494;2023-06-19T21:54:35;10.60;;;5.43;;
47896;SDS011;39629;51.400;5.494;2023-06-19T21:59:37;7.15;;;4.90;;
47896;SDS011;39629;51.400;5.494;2023-06-19T22:04:40;7.72;;;5.03;;
47896;SDS011;39629;51.400;5.494;2023-06-19T22:09:41;9.50;;;5.90;;
47896;SDS011;39629;51.400;5.494;2023-06-19T22:14:43;8.07;;;5.25;;
47896;SDS011;39629;51.400;5.494;2023-06-19T22:19:46;11.20;;;5.90;;
47896;SDS011;39629;51.400;5.494;2023-06-19T22:24:47;11.37;;;5.97;;
47896;SDS011;39629;51.400;5.494;2023-06-19T22:29:49;11.45;;;5.47;;
47896;SDS011;39629;51.400;5.494;2023-06-19T22:34:52;14.02;;;6.18;;
47896;SDS011;39629;51.400;5.494;2023-06-19T22:39:53;11.43;;;6.72;;
47896;SDS011;39629;51.400;5.494;2023-06-19T22:44:55;11.32;;;5.47;;
47896;SDS011;39629;51.400;5.494;2023-06-19T22:49:58;11.80;;;5.85;;
47896;SDS011;39629;51.400;5.494;2023-06-19T22:54:59;11.20;;;5.50;;
47896;SDS011;39629;51.400;5.494;2023-06-19T23:00:01;9.13;;;4.82;;
47896;SDS011;39629;51.400;5.494;2023-06-19T23:05:07;9.77;;;6.07;;
47896;SDS011;39629;51.400;5.494;2023-06-19T23:10:09;11.93;;;5.88;;
47896;SDS011;39629;51.400;5.494;2023-06-19T23:15:11;10.05;;;6.00;;
47896;SDS011;39629;51.400;5.494;2023-06-19T23:20:14;10.65;;;6.38;;
47896;SDS011;39629;51.400;5.494;2023-06-19T23:25:17;14.63;;;6.63;;
47896;SDS011;39629;51.400;5.494;2023-06-19T23:30:19;12.40;;;6.18;;
47896;SDS011;39629;51.400;5.494;2023-06-19T23:35:21;11.63;;;7.05;;
47896;SDS011;39629;51.400;5.494;2023-06-19T23:40:24;14.43;;;6.45;;
47896;SDS011;39629;51.400;5.494;2023-06-19T23:45:26;12.38;;;6.93;;
47896;SDS011;39629;51.400;5.494;2023-06-19T23:50:29;9.13;;;6.00;;
47896;SDS011;39629;51.400;5.494;2023-06-19T23:55:31;12.05;;;7.38;;
